Time;durP1;ratioP1;P1;durP2;ratioP2;P2;SDS_P1;SDS_P2;PMS_P1;PMS_P2;Temp;Humidity;BMP_temperature;BMP_pressure;BME280_temperature;BME280_humidity;BME280_pressure;Samples;Min_cycle;Max_cycle;Signal;HPM_P1;HPM_P2
2024/04/18 00:00:24;;;;;;;1.60;1.50;;;7.50;99.90;;;;;;5370283;26;20290;-70
2024/04/18 00:02:50;;;;;;;2.13;1.93;;;7.40;99.90;;;;;;5392687;26;20299;-70
2024/04/18 00:05:30;;;;;;;2.33;1.90;;;7.50;99.90;;;;;;5369323;26;20682;-71
2024/04/18 00:07:55;;;;;;;2.13;1.93;;;7.60;99.90;;;;;;5394382;26;20542;-71
2024/04/18 00:10:21;;;;;;;2.13;1.93;;;7.50;99.90;;;;;;5401085;26;20539;-73
2024/04/18 00:12:47;;;;;;;2.37;1.90;;;7.60;99.90;;;;;;5395370;26;20337;-70
2024/04/18 00:15:22;;;;;;;2.43;2.23;;;7.60;99.90;;;;;;5393749;26;20260;-69
2024/04/18 00:17:55;;;;;;;2.50;2.03;;;7.50;99.90;;;;;;5399538;26;21067;-71
2024/04/18 00:20:24;;;;;;;2.33;2.10;;;7.60;99.90;;;;;;5396186;26;20494;-69
2024/04/18 00:22:52;;;;;;;3.03;2.10;;;7.50;99.90;;;;;;5388196;26;20558;-69
2024/04/18 00:25:26;;;;;;;3.00;2.70;;;7.30;99.90;;;;;;5388255;26;20539;-69
2024/04/18 00:27:52;;;;;;;2.30;2.00;;;7.30;99.90;;;;;;5388451;26;20546;-70
2024/04/18 00:30:40;;;;;;;2.40;2.20;;;7.40;99.90;;;;;;5396190;26;20634;-70
2024/04/18 00:33:06;;;;;;;2.33;2.13;;;7.30;99.90;;;;;;5388612;26;20545;-68
2024/04/18 00:35:38;;;;;;;2.80;2.30;;;7.20;99.90;;;;;;5396153;26;20486;-69
2024/04/18 00:38:13;;;;;;;4.37;2.63;;;7.20;99.90;;;;;;5399187;26;20502;-71
2024/04/18 00:40:39;;;;;;;3.90;3.10;;;7.20;99.90;;;;;;5390326;26;20482;-73
2024/04/18 00:43:15;;;;;;;2.50;2.30;;;7.30;99.90;;;;;;5389950;26;20587;-71
2024/04/18 00:45:42;;;;;;;3.00;2.20;;;7.40;99.90;;;;;;5375236;26;20989;-69
2024/04/18 00:48:34;;;;;;;2.70;2.00;;;7.40;99.90;;;;;;5393951;26;20300;-70
2024/04/18 00:51:02;;;;;;;3.60;2.90;;;7.40;99.90;;;;;;5421621;26;20487;-69
2024/04/18 00:53:29;;;;;;;3.07;2.63;;;7.30;99.90;;;;;;5391754;26;20280;-68
2024/04/18 00:56:17;;;;;;;3.03;2.70;;;7.40;99.90;;;;;;5397572;26;20579;-70
2024/04/18 00:58:48;;;;;;;2.27;1.90;;;7.40;99.90;;;;;;5389789;26;20487;-71
2024/04/18 01:01:21;;;;;;;4.57;2.83;;;7.40;99.90;;;;;;5385778;26;20490;-72
2024/04/18 01:03:54;;;;;;;2.80;2.60;;;7.40;99.90;;;;;;5389365;26;20496;-70
2024/04/18 01:06:39;;;;;;;1.93;1.80;;;7.30;99.90;;;;;;5387090;26;20908;-70
2024/04/18 01:09:14;;;;;;;1.77;1.60;;;7.30;99.90;;;;;;5398105;26;20482;-70
2024/04/18 01:12:00;;;;;;;2.17;1.97;;;7.40;99.90;;;;;;5394183;26;20546;-70
2024/04/18 01:14:25;;;;;;;2.30;2.10;;;7.40;99.90;;;;;;5392107;26;20488;-73
2024/04/18 01:17:03;;;;;;;2.87;2.47;;;7.40;99.90;;;;;;5401009;26;20271;-69
2024/04/18 01:19:28;;;;;;;2.37;2.17;;;7.50;99.90;;;;;;5395019;26;21077;-69
2024/04/18 01:21:55;;;;;;;2.83;2.37;;;7.40;99.90;;;;;;5394776;26;20492;-69
2024/04/18 01:24:21;;;;;;;2.70;2.30;;;7.40;99.90;;;;;;5393427;26;20316;-74
2024/04/18 01:26:47;;;;;;;3.20;2.13;;;7.40;99.90;;;;;;5393650;26;20540;-70
2024/04/18 01:29:12;;;;;;;2.37;2.10;;;7.40;99.90;;;;;;5392637;26;20258;-71
2024/04/18 01:31:58;;;;;;;3.13;2.83;;;7.50;99.90;;;;;;5395041;26;20283;-70
2024/04/18 01:34:24;;;;;;;2.53;2.17;;;7.40;99.90;;;;;;5399669;26;20491;-70
2024/04/18 01:37:11;;;;;;;2.67;2.40;;;7.40;99.90;;;;;;5392920;26;20273;-70
2024/04/18 01:39:37;;;;;;;3.33;2.40;;;7.40;99.90;;;;;;5391425;26;20491;-70
2024/04/18 01:42:03;;;;;;;3.90;2.50;;;7.40;99.90;;;;;;5426156;26;20901;-70
2024/04/18 01:44:41;;;;;;;3.50;2.70;;;7.40;99.90;;;;;;5390651;26;20265;-70
2024/04/18 01:47:25;;;;;;;3.00;2.67;;;7.40;99.90;;;;;;5396280;26;20552;-68
2024/04/18 01:50:07;;;;;;;2.37;2.17;;;7.40;99.90;;;;;;5391447;26;20498;-69
2024/04/18 01:52:33;;;;;;;2.90;2.40;;;7.40;99.90;;;;;;5392971;26;20495;-74
2024/04/18 01:55:02;;;;;;;2.17;2.03;;;7.40;99.90;;;;;;5392491;26;20563;-72
2024/04/18 01:57:37;;;;;;;3.73;2.30;;;7.50;99.90;;;;;;5396597;26;20476;-72
2024/04/18 02:00:22;;;;;;;3.20;2.90;;;7.50;99.90;;;;;;5393586;26;20537;-72
2024/04/18 02:02:48;;;;;;;2.40;2.20;;;7.40;99.90;;;;;;5388337;26;20483;-73
2024/04/18 02:05:33;;;;;;;2.43;2.20;;;7.40;99.90;;;;;;5396045;26;20254;-74
2024/04/18 02:08:15;;;;;;;2.47;2.27;;;7.40;99.90;;;;;;5390512;26;20504;-72
2024/04/18 02:10:48;;;;;;;3.30;2.30;;;7.40;99.90;;;;;;5385948;26;20550;-72
2024/04/18 02:13:34;;;;;;;2.23;2.03;;;7.40;99.90;;;;;;5389151;26;21158;-71
2024/04/18 02:16:00;;;;;;;4.10;2.80;;;7.40;99.90;;;;;;5378366;26;20484;-71
2024/04/18 02:18:45;;;;;;;3.30;2.50;;;7.40;99.90;;;;;;5386698;26;20491;-74
2024/04/18 02:21:11;;;;;;;2.07;1.87;;;7.50;99.90;;;;;;5382406;26;20483;-72
2024/04/18 02:23:50;;;;;;;3.70;2.30;;;7.50;99.90;;;;;;5388615;26;21027;-72
2024/04/18 02:26:15;;;;;;;3.67;2.37;;;7.50;99.90;;;;;;5384076;26;20471;-73
2024/04/18 02:28:41;;;;;;;2.00;1.90;;;7.40;99.90;;;;;;5381045;26;20495;-73
2024/04/18 02:31:15;;;;;;;2.30;2.03;;;7.40;99.90;;;;;;5394605;26;20256;-71
2024/04/18 02:33:50;;;;;;;2.67;2.37;;;7.40;99.90;;;;;;5377692;26;21152;-72
2024/04/18 02:36:16;;;;;;;2.57;2.30;;;7.40;99.90;;;;;;5382240;26;20484;-75
2024/04/18 02:38:42;;;;;;;2.43;2.20;;;7.40;99.90;;;;;;5384070;26;20553;-73
2024/04/18 02:41:08;;;;;;;3.47;2.80;;;7.30;99.90;;;;;;5388141;26;20981;-73
2024/04/18 02:43:53;;;;;;;2.70;2.40;;;7.20;99.90;;;;;;5362247;26;20686;-72
2024/04/18 02:46:20;;;;;;;2.87;2.37;;;7.20;99.90;;;;;;5388223;26;20499;-74
2024/04/18 02:49:04;;;;;;;5.00;2.20;;;7.00;99.90;;;;;;5388110;26;20552;-73
2024/04/18 02:51:30;;;;;;;2.60;2.40;;;7.00;99.90;;;;;;5390782;26;20472;-72
2024/04/18 02:54:11;;;;;;;2.80;2.27;;;7.10;99.90;;;;;;5396047;26;20278;-72
2024/04/18 02:56:36;;;;;;;4.10;2.63;;;7.00;99.90;;;;;;5377042;26;21174;-71
2024/04/18 02:59:11;;;;;;;2.80;2.40;;;6.90;99.90;;;;;;5379719;26;20274;-71
2024/04/18 03:01:49;;;;;;;2.87;2.67;;;6.90;99.90;;;;;;5385099;26;20504;-70
2024/04/18 03:04:15;;;;;;;2.80;2.43;;;6.80;99.90;;;;;;5397921;26;20597;-70
2024/04/18 03:06:41;;;;;;;3.40;2.53;;;6.80;99.90;;;;;;5354856;26;20996;-70
2024/04/18 03:09:11;;;;;;;2.53;2.30;;;6.80;99.90;;;;;;5385113;26;20257;-68
2024/04/18 03:11:53;;;;;;;2.70;2.13;;;6.80;99.90;;;;;;5379893;26;20510;-69
2024/04/18 03:14:38;;;;;;;2.87;2.43;;;6.80;99.90;;;;;;5383155;26;20502;-70
2024/04/18 03:17:07;;;;;;;3.07;2.77;;;6.70;99.90;;;;;;5388069;26;20491;-69
2024/04/18 03:19:51;;;;;;;3.60;2.70;;;6.80;99.90;;;;;;5380786;26;20532;-72
2024/04/18 03:22:27;;;;;;;2.57;2.10;;;6.80;99.90;;;;;;5385808;26;20556;-71
2024/04/18 03:25:01;;;;;;;2.57;2.20;;;6.80;99.90;;;;;;5381387;26;20538;-69
2024/04/18 03:27:30;;;;;;;3.53;2.67;;;6.70;99.90;;;;;;5379295;26;20531;-69
2024/04/18 03:29:56;;;;;;;3.00;2.70;;;6.70;99.90;;;;;;5383489;26;20556;-68
2024/04/18 03:32:37;;;;;;;2.63;2.43;;;6.70;99.90;;;;;;5411346;26;21007;-69
2024/04/18 03:35:03;;;;;;;2.90;2.50;;;6.70;99.90;;;;;;5399396;26;20491;-70
2024/04/18 03:37:29;;;;;;;1.93;1.83;;;6.80;99.90;;;;;;5385597;26;20585;-70
2024/04/18 03:39:58;;;;;;;85.37;33.50;;;6.80;99.90;;;;;;5348064;26;20622;-71
2024/04/18 03:42:23;;;;;;;54.97;26.93;;;6.80;99.90;;;;;;5370558;26;20309;-69
2024/04/18 03:44:52;;;;;;;16.13;9.40;;;6.80;99.90;;;;;;5392921;26;20495;-69
2024/04/18 03:47:18;;;;;;;6.10;3.60;;;6.80;99.90;;;;;;5379946;26;20492;-70
2024/04/18 03:50:03;;;;;;;4.10;2.93;;;6.70;99.90;;;;;;5384292;26;20942;-68
2024/04/18 03:52:41;;;;;;;2.63;2.40;;;6.70;99.90;;;;;;5381082;26;20848;-69
2024/04/18 03:55:25;;;;;;;2.80;2.37;;;6.70;99.90;;;;;;5358557;26;20581;-69
2024/04/18 03:57:50;;;;;;;3.77;2.30;;;6.70;99.90;;;;;;5386207;26;20556;-69
2024/04/18 04:00:37;;;;;;;3.27;2.83;;;6.70;99.90;;;;;;5371581;26;20266;-71
2024/04/18 04:03:02;;;;;;;3.00;2.67;;;6.70;99.90;;;;;;5394073;26;20497;-69
2024/04/18 04:05:28;;;;;;;3.40;2.87;;;6.70;99.90;;;;;;5381082;26;20556;-69
2024/04/18 04:07:54;;;;;;;5.00;3.00;;;6.70;99.90;;;;;;5380634;26;20352;-68
2024/04/18 04:10:38;;;;;;;5.67;3.40;;;6.70;99.90;;;;;;5373967;26;20304;-70
2024/04/18 04:13:04;;;;;;;4.47;3.50;;;6.70;99.90;;;;;;5350495;26;20534;-69
2024/04/18 04:15:48;;;;;;;6.47;3.10;;;6.70;99.90;;;;;;5377438;26;20495;-69
2024/04/18 04:18:33;;;;;;;4.17;3.03;;;6.60;99.90;;;;;;5377636;26;21009;-71
2024/04/18 04:21:18;;;;;;;3.67;2.70;;;6.60;99.90;;;;;;5386128;26;20557;-71
2024/04/18 04:23:44;;;;;;;4.57;3.27;;;6.80;99.90;;;;;;5387472;26;20502;-70
2024/04/18 04:26:09;;;;;;;3.23;2.93;;;6.80;99.90;;;;;;5385734;26;20955;-73
2024/04/18 04:28:35;;;;;;;5.00;3.60;;;6.80;99.90;;;;;;5383126;26;20250;-69
2024/04/18 04:31:01;;;;;;;5.30;3.30;;;6.80;99.90;;;;;;5383137;26;20266;-69
2024/04/18 04:33:28;;;;;;;5.40;3.17;;;6.70;99.90;;;;;;5384832;26;20250;-69
2024/04/18 04:35:53;;;;;;;4.60;4.07;;;6.80;99.90;;;;;;5380514;26;20278;-68
2024/04/18 04:38:19;;;;;;;6.00;3.80;;;6.80;99.90;;;;;;5385948;26;20570;-69
2024/04/18 04:40:44;;;;;;;4.80;3.70;;;6.80;99.90;;;;;;5359907;26;20274;-69
2024/04/18 04:43:10;;;;;;;4.53;3.50;;;6.80;99.90;;;;;;5374928;26;20594;-71
2024/04/18 04:45:36;;;;;;;5.40;4.13;;;6.80;99.90;;;;;;5381865;26;20316;-69
2024/04/18 04:48:05;;;;;;;5.80;3.97;;;6.80;99.90;;;;;;5381562;26;20258;-71
2024/04/18 04:50:30;;;;;;;6.27;4.80;;;6.90;99.90;;;;;;5378534;26;20527;-69
2024/04/18 04:53:11;;;;;;;6.23;3.93;;;6.90;99.90;;;;;;5381946;26;20492;-70
2024/04/18 04:55:56;;;;;;;5.50;3.80;;;6.90;99.90;;;;;;5382603;26;20532;-69
2024/04/18 04:58:21;;;;;;;8.00;4.80;;;7.00;99.90;;;;;;5393032;26;20490;-68
2024/04/18 05:00:47;;;;;;;5.50;4.17;;;7.00;99.90;;;;;;5385038;26;20278;-69
2024/04/18 05:03:13;;;;;;;4.70;3.30;;;6.90;99.90;;;;;;5395038;26;20918;-68
2024/04/18 05:05:59;;;;;;;6.50;3.93;;;7.00;99.90;;;;;;5388676;26;20303;-70
2024/04/18 05:08:34;;;;;;;6.00;4.70;;;6.90;99.90;;;;;;5376430;26;20482;-67
2024/04/18 05:11:01;;;;;;;5.60;3.87;;;7.00;99.90;;;;;;5386377;26;20514;-71
2024/04/18 05:13:27;;;;;;;5.90;4.00;;;7.10;99.90;;;;;;5382184;26;20307;-70
2024/04/18 05:16:13;;;;;;;4.47;3.53;;;7.10;99.90;;;;;;5393138;26;20544;-67
2024/04/18 05:18:38;;;;;;;8.43;4.73;;;7.10;99.90;;;;;;5381077;26;20482;-69
2024/04/18 05:21:05;;;;;;;6.33;4.17;;;7.10;99.90;;;;;;5385270;26;20266;-70
2024/04/18 05:23:50;;;;;;;5.63;3.70;;;7.00;99.90;;;;;;5385076;26;20296;-69
2024/04/18 05:26:16;;;;;;;6.20;4.47;;;7.10;99.90;;;;;;5380456;26;20487;-69
2024/04/18 05:31:00;;;;;;;10.27;4.50;;;7.00;99.90;;;;;;5360000;26;20278;-70
2024/04/18 05:31:28;;;;;;;7.10;4.63;;;6.90;99.90;;;;;;5385231;26;20265;-71
2024/04/18 05:33:54;;;;;;;6.50;4.87;;;7.00;99.90;;;;;;5383923;26;20542;-70
2024/04/18 05:36:19;;;;;;;6.80;4.90;;;7.10;99.90;;;;;;5378683;26;20579;-71
2024/04/18 05:38:45;;;;;;;5.53;4.47;;;7.00;99.90;;;;;;5388637;26;20370;-72
2024/04/18 05:41:11;;;;;;;8.83;5.63;;;7.00;99.90;;;;;;5390765;26;20257;-69
2024/04/18 05:43:49;;;;;;;6.93;4.67;;;6.90;99.90;;;;;;5395625;26;20264;-70
2024/04/18 05:46:15;;;;;;;6.30;4.80;;;7.00;99.90;;;;;;5397811;26;20551;-69
2024/04/18 05:48:40;;;;;;;8.60;5.13;;;7.10;99.90;;;;;;5397744;26;20304;-70
2024/04/18 05:51:06;;;;;;;7.20;4.17;;;7.20;99.90;;;;;;5398605;26;20266;-67
2024/04/18 05:53:31;;;;;;;7.40;4.90;;;7.10;99.90;;;;;;5397143;26;20269;-71
2024/04/18 05:55:57;;;;;;;5.20;3.57;;;7.10;99.90;;;;;;5398451;26;20801;-70
2024/04/18 05:58:23;;;;;;;7.77;4.70;;;7.10;99.90;;;;;;5401843;26;20270;-69
2024/04/18 06:00:55;;;;;;;6.73;4.90;;;7.10;99.90;;;;;;5386960;26;20266;-70
2024/04/18 06:03:21;;;;;;;6.23;4.80;;;7.10;99.90;;;;;;5378656;26;20494;-70
2024/04/18 06:05:47;;;;;;;8.70;4.87;;;7.20;99.90;;;;;;5361022;26;21047;-69
2024/04/18 06:08:13;;;;;;;9.40;5.77;;;7.20;99.90;;;;;;5388625;26;20622;-72
2024/04/18 06:10:40;;;;;;;6.90;4.50;;;7.20;99.90;;;;;;5381058;26;20316;-72
2024/04/18 06:13:36;;;;;;;5.53;4.00;;;7.20;99.90;;;;;;5396222;26;21072;-69
2024/04/18 06:16:02;;;;;;;6.90;5.03;;;7.20;99.90;;;;;;5391912;26;20500;-71
2024/04/18 06:18:47;;;;;;;5.90;4.63;;;7.20;99.90;;;;;;5386810;26;21108;-69
2024/04/18 06:21:13;;;;;;;6.43;5.43;;;7.20;99.90;;;;;;5366163;26;20471;-68
2024/04/18 06:23:38;;;;;;;7.07;4.13;;;7.30;99.90;;;;;;5385131;26;20400;-69
2024/04/18 06:26:16;;;;;;;19.17;8.77;;;7.30;99.90;;;;;;5381436;26;20379;-69
2024/04/18 06:28:42;;;;;;;18.10;10.27;;;7.30;99.90;;;;;;5381907;26;21138;-69
2024/04/18 06:31:08;;;;;;;16.07;8.00;;;7.30;99.90;;;;;;5387510;26;20363;-68
2024/04/18 06:33:33;;;;;;;10.27;6.10;;;7.30;99.90;;;;;;5376901;26;20486;-70
2024/04/18 06:35:59;;;;;;;11.37;6.30;;;7.30;99.90;;;;;;5364666;26;20262;-68
2024/04/18 06:38:25;;;;;;;9.53;6.27;;;7.30;99.90;;;;;;5379360;26;20266;-69
2024/04/18 06:40:51;;;;;;;9.13;6.30;;;7.40;99.90;;;;;;5386666;26;20278;-70
2024/04/18 06:43:16;;;;;;;9.93;5.60;;;7.40;99.90;;;;;;5381541;26;21009;-71
2024/04/18 06:45:44;;;;;;;10.40;5.97;;;7.40;99.90;;;;;;5382674;26;20285;-70
2024/04/18 06:48:10;;;;;;;8.23;4.87;;;7.40;99.90;;;;;;5391404;26;20317;-70
2024/04/18 06:50:39;;;;;;;8.57;6.10;;;7.40;99.90;;;;;;5378982;26;20500;-69
2024/04/18 06:53:05;;;;;;;7.07;4.90;;;7.50;99.90;;;;;;5379360;26;20541;-71
2024/04/18 06:55:34;;;;;;;8.60;5.50;;;7.50;99.90;;;;;;5373292;26;20490;-70
2024/04/18 06:58:00;;;;;;;8.30;5.60;;;7.50;99.90;;;;;;5379187;26;20492;-70
2024/04/18 07:00:25;;;;;;;7.87;5.40;;;7.50;99.90;;;;;;5381581;26;20499;-69
2024/04/18 07:02:51;;;;;;;9.17;5.43;;;7.60;99.90;;;;;;5384577;26;20601;-70
2024/04/18 07:05:35;;;;;;;7.80;4.93;;;7.70;99.90;;;;;;5383008;26;20308;-70
2024/04/18 07:08:24;;;;;;;9.40;5.00;;;7.70;99.90;;;;;;5383458;26;20504;-71
2024/04/18 07:10:50;;;;;;;9.50;5.43;;;7.70;99.90;;;;;;5388165;26;20894;-70
2024/04/18 07:13:29;;;;;;;12.53;6.00;;;7.70;99.90;;;;;;5379317;26;20272;-71
2024/04/18 07:15:56;;;;;;;9.40;5.63;;;7.70;99.90;;;;;;5360251;26;20566;-69
2024/04/18 07:18:40;;;;;;;8.27;5.30;;;7.70;99.90;;;;;;5376204;26;20539;-72
2024/04/18 07:21:16;;;;;;;8.80;5.40;;;7.80;99.90;;;;;;5391275;26;20507;-68
2024/04/18 07:23:42;;;;;;;9.40;5.20;;;7.80;99.90;;;;;;5386620;26;21097;-71
2024/04/18 07:26:07;;;;;;;11.20;6.03;;;7.90;99.90;;;;;;5359528;26;20287;-70
2024/04/18 07:28:33;;;;;;;8.27;5.93;;;7.90;99.90;;;;;;5378674;26;20272;-70
2024/04/18 07:30:59;;;;;;;10.60;5.90;;;8.00;99.90;;;;;;5385598;26;20327;-69
2024/04/18 07:33:25;;;;;;;8.23;5.17;;;8.00;99.90;;;;;;5376619;26;20278;-70
2024/04/18 07:35:59;;;;;;;9.00;5.07;;;8.00;99.90;;;;;;5381848;26;20277;-73
2024/04/18 07:38:25;;;;;;;8.50;6.03;;;8.00;99.90;;;;;;5380916;26;20627;-70
2024/04/18 07:40:51;;;;;;;8.13;5.37;;;8.10;99.90;;;;;;5393247;26;20499;-71
2024/04/18 07:43:17;;;;;;;8.40;4.97;;;8.10;99.90;;;;;;5386949;26;20661;-70
2024/04/18 07:45:42;;;;;;;9.03;5.27;;;8.20;99.90;;;;;;5386245;26;20288;-73
2024/04/18 07:48:08;;;;;;;8.13;5.57;;;8.10;99.90;;;;;;5385584;26;20300;-69
2024/04/18 07:50:34;;;;;;;9.17;5.60;;;8.30;99.90;;;;;;5380683;26;20597;-70
2024/04/18 07:53:00;;;;;;;7.87;5.20;;;8.40;99.90;;;;;;5356503;26;20250;-71
2024/04/18 07:55:26;;;;;;;12.47;5.73;;;8.40;99.90;;;;;;5349568;26;20327;-71
2024/04/18 07:57:51;;;;;;;7.73;4.90;;;8.40;99.90;;;;;;5360477;26;20506;-69
2024/04/18 08:00:17;;;;;;;8.70;5.10;;;8.40;99.90;;;;;;5386986;26;20268;-73
2024/04/18 08:02:46;;;;;;;7.30;4.20;;;8.40;99.90;;;;;;5383439;26;20266;-70
2024/04/18 08:05:12;;;;;;;10.80;5.00;;;8.40;99.90;;;;;;5382886;26;20495;-66
2024/04/18 08:07:37;;;;;;;12.13;5.30;;;8.50;99.90;;;;;;5373168;26;20479;-70
2024/04/18 08:10:04;;;;;;;9.40;4.90;;;8.60;99.90;;;;;;5377224;26;20276;-70
2024/04/18 08:12:29;;;;;;;7.03;4.63;;;8.60;99.90;;;;;;5352002;26;20366;-70
2024/04/18 08:14:55;;;;;;;10.10;5.40;;;8.50;99.90;;;;;;5384506;26;20496;-69
2024/04/18 08:17:21;;;;;;;11.50;5.40;;;8.60;99.90;;;;;;5391105;26;20320;-70
2024/04/18 08:19:46;;;;;;;14.93;6.33;;;8.60;99.90;;;;;;5382396;26;20276;-71
2024/04/18 08:22:12;;;;;;;9.10;5.73;;;8.70;99.90;;;;;;5380767;26;20261;-70
2024/04/18 08:24:38;;;;;;;7.20;4.87;;;8.60;99.90;;;;;;5375596;26;20261;-68
2024/04/18 08:27:07;;;;;;;7.50;4.90;;;8.70;99.90;;;;;;5388488;26;20273;-72
2024/04/18 08:29:32;;;;;;;8.00;4.43;;;8.60;99.90;;;;;;5377414;26;20850;-69
2024/04/18 08:31:59;;;;;;;9.07;5.40;;;8.70;99.90;;;;;;5381367;26;20506;-70
2024/04/18 08:34:24;;;;;;;10.23;5.33;;;8.80;99.90;;;;;;5361142;26;20262;-69
2024/04/18 08:36:50;;;;;;;9.00;4.70;;;8.90;99.90;;;;;;5390943;26;21011;-70
2024/04/18 08:39:16;;;;;;;8.43;5.50;;;9.00;99.90;;;;;;5391229;26;20377;-73
2024/04/18 08:41:43;;;;;;;7.33;4.33;;;9.00;99.90;;;;;;5388250;26;20736;-70
2024/04/18 08:44:10;;;;;;;8.13;5.03;;;9.00;99.90;;;;;;5388166;26;20299;-72
2024/04/18 08:46:36;;;;;;;8.30;4.70;;;9.00;99.90;;;;;;5379648;26;20617;-69
2024/04/18 08:49:05;;;;;;;7.33;5.13;;;9.00;99.90;;;;;;5384458;26;20488;-70
2024/04/18 08:51:34;;;;;;;7.30;4.60;;;9.00;99.90;;;;;;5385817;26;20573;-70
2024/04/18 08:54:00;;;;;;;7.53;5.30;;;8.90;99.90;;;;;;5415475;26;21314;-69
2024/04/18 08:56:34;;;;;;;7.97;4.93;;;9.00;99.90;;;;;;5385663;26;20487;-67
2024/04/18 08:59:01;;;;;;;6.23;4.57;;;9.20;99.90;;;;;;5382800;26;20510;-68
2024/04/18 09:01:27;;;;;;;7.97;4.40;;;9.20;99.90;;;;;;5373606;26;21056;-71
2024/04/18 09:03:57;;;;;;;7.17;4.57;;;9.30;99.90;;;;;;5388859;26;20496;-70
2024/04/18 09:06:23;;;;;;;4.80;3.33;;;9.20;99.90;;;;;;5380450;26;20615;-68
2024/04/18 09:08:51;;;;;;;4.90;3.70;;;9.20;99.90;;;;;;5388964;26;20484;-71
2024/04/18 09:11:16;;;;;;;4.53;3.83;;;9.20;99.90;;;;;;5384540;26;20615;-68
2024/04/18 09:13:44;;;;;;;5.47;3.47;;;9.20;99.90;;;;;;5386016;26;20487;-70
2024/04/18 09:16:09;;;;;;;5.17;3.17;;;9.20;99.90;;;;;;5388790;26;20337;-70
2024/04/18 09:18:35;;;;;;;5.87;3.87;;;9.20;99.90;;;;;;5357404;26;20508;-70
2024/04/18 09:21:02;;;;;;;9.23;4.70;;;9.30;99.90;;;;;;5381378;26;20293;-70
2024/04/18 09:23:30;;;;;;;7.73;4.90;;;9.20;99.90;;;;;;5378325;26;20300;-68
2024/04/18 09:25:56;;;;;;;6.03;4.43;;;9.20;99.90;;;;;;5381937;26;20490;-71
2024/04/18 09:28:21;;;;;;;6.10;4.13;;;9.30;99.90;;;;;;5375148;26;20554;-70
2024/04/18 09:30:54;;;;;;;6.70;4.30;;;9.30;99.90;;;;;;5362666;26;20304;-70
2024/04/18 09:33:23;;;;;;;7.27;3.63;;;9.20;99.90;;;;;;5390443;26;20365;-68
2024/04/18 09:35:54;;;;;;;4.87;3.80;;;9.30;99.90;;;;;;5379981;26;20504;-71
2024/04/18 09:38:21;;;;;;;3.40;3.10;;;9.40;99.90;;;;;;5386201;26;20589;-74
2024/04/18 09:41:10;;;;;;;4.20;3.27;;;9.50;99.90;;;;;;5377022;26;20503;-72
2024/04/18 09:44:04;;;;;;;4.53;2.90;;;9.50;99.90;;;;;;5380479;26;20498;-72
2024/04/18 09:46:31;;;;;;;6.53;4.17;;;9.40;99.90;;;;;;5388457;26;20617;-69
2024/04/18 09:48:57;;;;;;;6.53;3.90;;;9.40;99.90;;;;;;5381696;26;20612;-72
2024/04/18 09:51:24;;;;;;;4.07;3.27;;;9.30;99.90;;;;;;5379867;26;20675;-70
2024/04/18 09:53:49;;;;;;;4.87;2.83;;;9.40;99.90;;;;;;5378568;26;20272;-72
2024/04/18 09:56:17;;;;;;;5.17;3.33;;;9.40;99.90;;;;;;5383559;26;20489;-70
2024/04/18 09:58:44;;;;;;;7.30;3.73;;;9.60;99.90;;;;;;5384210;26;20379;-71
2024/04/18 10:01:11;;;;;;;4.20;3.20;;;9.60;99.90;;;;;;5385475;26;21029;-69
2024/04/18 10:03:37;;;;;;;3.70;3.07;;;9.70;99.90;;;;;;5383521;26;20598;-70
2024/04/18 10:06:09;;;;;;;5.13;3.50;;;9.80;99.90;;;;;;5384131;26;20508;-72
2024/04/18 10:08:41;;;;;;;7.67;4.57;;;9.80;99.90;;;;;;5379751;26;20519;-72
2024/04/18 10:11:09;;;;;;;4.47;3.20;;;9.80;99.90;;;;;;5382428;26;20566;-67
2024/04/18 10:13:38;;;;;;;5.70;3.97;;;10.00;99.90;;;;;;5382501;26;20890;-73
2024/04/18 10:16:13;;;;;;;5.47;3.97;;;10.00;99.90;;;;;;5378988;26;20618;-70
2024/04/18 10:18:41;;;;;;;5.90;3.70;;;10.10;99.90;;;;;;5378512;26;20491;-71
2024/04/18 10:21:14;;;;;;;3.90;2.87;;;10.10;99.90;;;;;;5358044;26;20484;-66
2024/04/18 10:23:50;;;;;;;5.93;3.20;;;10.20;99.90;;;;;;5372558;26;20500;-71
2024/04/18 10:26:17;;;;;;;5.87;4.40;;;10.10;99.90;;;;;;5356303;26;20497;-72
2024/04/18 10:28:44;;;;;;;6.67;4.20;;;10.10;99.90;;;;;;5377044;26;20588;-70
2024/04/18 10:31:10;;;;;;;5.20;3.77;;;9.90;99.90;;;;;;5380326;26;20524;-70
2024/04/18 10:33:37;;;;;;;5.20;3.73;;;9.80;99.90;;;;;;5370576;26;21064;-71
2024/04/18 10:36:07;;;;;;;5.47;4.37;;;9.90;99.90;;;;;;5379581;26;20487;-70
2024/04/18 10:38:33;;;;;;;5.67;4.23;;;9.90;99.90;;;;;;5381591;26;20500;-70
2024/04/18 10:41:03;;;;;;;6.77;4.87;;;9.90;99.90;;;;;;5383898;26;20591;-70
2024/04/18 10:43:29;;;;;;;6.20;3.97;;;10.00;99.90;;;;;;5381550;26;20699;-69
2024/04/18 10:45:55;;;;;;;7.10;4.43;;;10.10;99.90;;;;;;5379717;26;20499;-70
2024/04/18 10:48:22;;;;;;;9.37;5.00;;;10.30;99.90;;;;;;5380941;26;20515;-70
2024/04/18 10:50:51;;;;;;;6.33;4.47;;;10.50;99.90;;;;;;5385433;26;20560;-70
2024/04/18 10:53:17;;;;;;;4.90;3.80;;;10.70;99.90;;;;;;5391163;26;21265;-70
2024/04/18 10:55:43;;;;;;;6.27;4.00;;;10.90;99.90;;;;;;5378085;26;20483;-72
2024/04/18 10:58:11;;;;;;;4.97;3.70;;;11.00;99.90;;;;;;5378244;26;20489;-72
2024/04/18 11:00:38;;;;;;;6.50;3.97;;;11.10;99.90;;;;;;5379614;26;20537;-69
2024/04/18 11:03:04;;;;;;;4.67;4.10;;;11.00;99.90;;;;;;5380367;26;20506;-69
2024/04/18 11:05:30;;;;;;;6.77;4.40;;;10.90;99.90;;;;;;5389103;26;20541;-70
2024/04/18 11:07:56;;;;;;;3.90;3.07;;;10.80;99.90;;;;;;5382470;26;20323;-70
2024/04/18 11:10:27;;;;;;;5.03;3.60;;;10.50;99.90;;;;;;5381432;26;20504;-72
2024/04/18 11:12:56;;;;;;;3.90;3.40;;;10.40;99.90;;;;;;5380042;26;20270;-70
2024/04/18 11:15:22;;;;;;;5.40;3.73;;;10.30;99.90;;;;;;5379109;26;20618;-70
2024/04/18 11:17:48;;;;;;;4.37;3.10;;;10.10;99.90;;;;;;5381923;26;20510;-70
2024/04/18 11:20:14;;;;;;;3.53;3.23;;;10.20;99.90;;;;;;5387420;26;20563;-71
2024/04/18 11:22:40;;;;;;;5.73;3.57;;;10.30;99.90;;;;;;5374841;26;20296;-73
2024/04/18 11:25:09;;;;;;;4.53;3.20;;;10.40;99.90;;;;;;5375014;26;20265;-70
2024/04/18 11:27:37;;;;;;;5.50;3.77;;;10.40;99.90;;;;;;5372099;26;20556;-71
2024/04/18 11:30:06;;;;;;;5.20;4.33;;;10.50;99.90;;;;;;5403734;26;20535;-71
2024/04/18 11:32:35;;;;;;;8.33;4.23;;;10.40;99.90;;;;;;5343281;26;21092;-70
2024/04/18 11:35:01;;;;;;;5.90;4.10;;;10.50;99.90;;;;;;5380510;26;20499;-71
2024/04/18 11:37:37;;;;;;;8.07;4.90;;;10.50;99.90;;;;;;5381850;26;20560;-70
2024/04/18 11:40:05;;;;;;;5.47;4.10;;;10.50;99.90;;;;;;5376373;26;20276;-71
2024/04/18 11:42:31;;;;;;;7.27;4.70;;;10.50;99.90;;;;;;5412148;26;20555;-70
2024/04/18 11:44:57;;;;;;;7.30;5.30;;;10.50;99.90;;;;;;5387811;26;20479;-73
2024/04/18 11:47:22;;;;;;;7.20;5.30;;;10.60;99.90;;;;;;5376335;26;20278;-70
2024/04/18 11:49:48;;;;;;;6.40;4.23;;;10.60;99.90;;;;;;5359831;26;20269;-70
2024/04/18 11:52:14;;;;;;;6.80;4.77;;;10.60;99.90;;;;;;5411130;26;20253;-70
2024/04/18 11:54:54;;;;;;;6.27;4.90;;;10.60;99.90;;;;;;5362144;26;20257;-68
2024/04/18 11:57:20;;;;;;;4.90;4.00;;;10.50;99.90;;;;;;5383128;26;20993;-71
2024/04/18 11:59:50;;;;;;;5.43;3.90;;;10.70;99.90;;;;;;5382924;26;20672;-70
2024/04/18 12:02:16;;;;;;;5.67;4.07;;;10.90;99.90;;;;;;5379983;26;20483;-70
2024/04/18 12:04:50;;;;;;;5.80;3.70;;;10.80;99.90;;;;;;5380522;26;20265;-70
2024/04/18 12:07:16;;;;;;;6.27;4.00;;;10.80;99.90;;;;;;5389166;26;20537;-68
2024/04/18 12:09:50;;;;;;;5.90;4.20;;;10.90;99.90;;;;;;5375988;26;20336;-71
2024/04/18 12:12:16;;;;;;;4.53;3.93;;;10.90;99.90;;;;;;5385836;26;21008;-71
2024/04/18 12:14:46;;;;;;;5.27;3.87;;;10.90;99.90;;;;;;5387628;26;20547;-71
2024/04/18 12:17:24;;;;;;;4.50;3.67;;;10.90;99.90;;;;;;5382653;26;20802;-72
2024/04/18 12:20:10;;;;;;;5.83;3.70;;;11.00;99.90;;;;;;5383282;26;21132;-70
2024/04/18 12:22:36;;;;;;;4.87;3.27;;;11.10;99.90;;;;;;5383733;26;20491;-71
2024/04/18 12:25:11;;;;;;;4.90;3.50;;;11.00;99.90;;;;;;5362217;26;20261;-73
2024/04/18 12:27:37;;;;;;;5.13;3.50;;;11.00;99.90;;;;;;5381189;26;20551;-70
2024/04/18 12:30:03;;;;;;;4.37;3.60;;;10.90;99.90;;;;;;5387578;26;21022;-69
2024/04/18 12:32:28;;;;;;;5.23;4.73;;;10.90;99.90;;;;;;5379020;26;20316;-69
2024/04/18 12:34:54;;;;;;;6.40;5.80;;;11.00;99.90;;;;;;5392750;26;21016;-70
2024/04/18 12:37:20;;;;;;;4.50;4.10;;;11.10;99.90;;;;;;5387506;26;20329;-72
2024/04/18 12:39:47;;;;;;;5.90;3.73;;;11.10;99.90;;;;;;5387349;26;20295;-71
2024/04/18 12:42:25;;;;;;;6.37;4.93;;;11.20;99.90;;;;;;5383906;26;20311;-70
2024/04/18 12:44:51;;;;;;;63.67;36.13;;;11.20;99.90;;;;;;5378430;26;21091;-70
2024/04/18 12:47:19;;;;;;;64.30;37.57;;;11.20;99.90;;;;;;5391423;26;20266;-71
2024/04/18 12:49:46;;;;;;;52.60;31.33;;;11.30;99.90;;;;;;5377680;26;20488;-70
2024/04/18 12:52:12;;;;;;;57.10;37.33;;;11.30;99.90;;;;;;5358013;26;20250;-70
2024/04/18 12:54:38;;;;;;;131.57;78.13;;;11.30;99.90;;;;;;5381267;26;20472;-69
2024/04/18 12:57:04;;;;;;;158.13;92.67;;;11.30;99.90;;;;;;5386268;26;20555;-70
2024/04/18 12:59:49;;;;;;;60.53;39.57;;;11.40;99.90;;;;;;5389531;26;20266;-70
2024/04/18 13:02:24;;;;;;;28.60;19.53;;;11.40;99.90;;;;;;5392916;26;20497;-69
2024/04/18 13:04:53;;;;;;;22.30;15.03;;;11.40;99.90;;;;;;5366368;26;20561;-70
2024/04/18 13:07:20;;;;;;;15.77;9.47;;;11.60;99.90;;;;;;5388638;26;21003;-70